Time;durP1;ratioP1;P1;durP2;ratioP2;P2;SDS_P1;SDS_P2;PMS_P1;PMS_P2;Temp;Humidity;BMP_temperature;BMP_pressure;BME280_temperature;BME280_humidity;BME280_pressure;Samples;Min_cycle;Max_cycle;Signal;HPM_P1;HPM_P2
2021/07/17 00:01:14;;;;;;;2.58;2.10;;;22.30;73.30;;;;;;5052421;28;20520;-45
2021/07/17 00:03:40;;;;;;;2.45;2.00;;;22.30;73.30;;;;;;5052618;28;20070;-47
2021/07/17 00:06:06;;;;;;;3.47;1.92;;;22.30;73.30;;;;;;5051695;28;20064;-50
2021/07/17 00:08:32;;;;;;;1.92;1.80;;;22.30;73.30;;;;;;5050923;28;20048;-48
2021/07/17 00:10:58;;;;;;;2.10;1.85;;;22.30;73.30;;;;;;5051406;28;20100;-48
2021/07/17 00:13:24;;;;;;;2.70;2.08;;;22.30;73.30;;;;;;5051608;28;20044;-52
2021/07/17 00:15:54;;;;;;;2.22;1.88;;;22.30;73.30;;;;;;5052202;28;20117;-50
2021/07/17 00:18:20;;;;;;;2.03;1.83;;;22.30;73.30;;;;;;5051752;28;20041;-48
2021/07/17 00:20:47;;;;;;;2.28;2.00;;;22.30;73.30;;;;;;5051567;28;20053;-51
2021/07/17 00:23:13;;;;;;;2.75;1.90;;;22.30;73.30;;;;;;5051767;28;20064;-51
2021/07/17 00:25:39;;;;;;;2.90;2.03;;;22.30;73.30;;;;;;5050979;28;20203;-48
2021/07/17 00:28:06;;;;;;;4.45;2.20;;;22.30;73.30;;;;;;5051660;28;20549;-50
2021/07/17 00:30:32;;;;;;;2.60;2.03;;;22.30;73.30;;;;;;5051479;28;20049;-47
2021/07/17 00:32:57;;;;;;;3.35;1.92;;;22.30;74.00;;;;;;5051853;28;20124;-47
2021/07/17 00:35:23;;;;;;;3.30;1.90;;;22.30;73.40;;;;;;5051850;28;20049;-50
2021/07/17 00:37:49;;;;;;;2.33;1.77;;;22.30;73.40;;;;;;5052001;28;20052;-48
2021/07/17 00:40:19;;;;;;;2.63;2.00;;;22.30;73.40;;;;;;5051063;28;20078;-45
2021/07/17 00:42:46;;;;;;;2.70;2.10;;;22.20;73.30;;;;;;5051149;28;20067;-47
2021/07/17 00:45:12;;;;;;;2.20;2.00;;;22.30;73.40;;;;;;5051177;28;20055;-49
2021/07/17 00:47:39;;;;;;;3.95;1.98;;;22.20;73.40;;;;;;5052082;28;20045;-48
2021/07/17 00:50:08;;;;;;;3.28;2.00;;;22.20;73.40;;;;;;5051406;28;20127;-47
2021/07/17 00:52:34;;;;;;;2.00;1.80;;;22.20;73.40;;;;;;5051185;28;20053;-46
2021/07/17 00:55:01;;;;;;;2.30;1.77;;;22.20;73.40;;;;;;5051654;28;20444;-48
2021/07/17 00:57:29;;;;;;;3.35;2.00;;;22.20;74.00;;;;;;5051357;28;20095;-47
2021/07/17 00:59:59;;;;;;;2.25;2.05;;;22.20;73.40;;;;;;5051070;28;20072;-47
2021/07/17 01:02:25;;;;;;;2.95;2.03;;;22.20;73.40;;;;;;5051056;28;20103;-49
2021/07/17 01:04:52;;;;;;;2.17;1.92;;;22.20;73.40;;;;;;5051703;28;20045;-45
2021/07/17 01:07:18;;;;;;;2.65;2.00;;;22.30;73.50;;;;;;5051809;28;20049;-51
2021/07/17 01:09:43;;;;;;;2.92;1.98;;;22.20;73.40;;;;;;5051555;28;20124;-50
2021/07/17 01:12:09;;;;;;;1.98;1.77;;;22.20;73.50;;;;;;5051448;28;20457;-49
2021/07/17 01:14:38;;;;;;;4.45;2.20;;;22.20;73.40;;;;;;5050639;28;20049;-48
2021/07/17 01:17:04;;;;;;;3.17;1.95;;;22.20;73.50;;;;;;5051477;28;20045;-46
2021/07/17 01:19:30;;;;;;;2.78;2.00;;;22.20;73.50;;;;;;5053455;28;20128;-47
2021/07/17 01:21:55;;;;;;;2.50;1.90;;;22.20;73.50;;;;;;5054490;28;20055;-44
2021/07/17 01:24:22;;;;;;;4.03;2.10;;;22.20;73.50;;;;;;5054665;28;20485;-50
2021/07/17 01:26:50;;;;;;;2.88;1.88;;;22.20;73.50;;;;;;5055356;28;20078;-44
2021/07/17 01:29:15;;;;;;;2.65;1.92;;;22.20;73.50;;;;;;5054488;28;20041;-48
2021/07/17 01:31:41;;;;;;;1.95;1.75;;;22.10;73.40;;;;;;5054907;28;20072;-48
2021/07/17 01:34:07;;;;;;;3.05;2.05;;;22.20;73.50;;;;;;5054634;28;20033;-48
2021/07/17 01:36:33;;;;;;;2.22;2.03;;;22.20;73.50;;;;;;5054953;28;20397;-45
2021/07/17 01:38:58;;;;;;;2.13;1.90;;;22.20;73.50;;;;;;5054680;28;20065;-47
2021/07/17 01:41:24;;;;;;;2.55;1.90;;;22.10;73.40;;;;;;5054899;28;20122;-47
2021/07/17 01:43:51;;;;;;;1.88;1.67;;;22.20;73.50;;;;;;5054697;28;20064;-51
2021/07/17 01:46:17;;;;;;;2.47;1.70;;;22.20;73.50;;;;;;5044660;28;20071;-46
2021/07/17 01:48:54;;;;;;;2.38;2.13;;;22.10;73.50;;;;;;5054782;28;20053;-49
2021/07/17 01:51:21;;;;;;;3.95;2.10;;;22.20;73.50;;;;;;5054313;28;20052;-44
2021/07/17 01:53:55;;;;;;;3.90;1.83;;;22.20;73.50;;;;;;5054703;28;20048;-49
2021/07/17 01:56:22;;;;;;;2.10;1.67;;;22.10;73.50;;;;;;5053802;28;20435;-47
2021/07/17 01:58:51;;;;;;;2.72;1.80;;;22.10;73.50;;;;;;5054548;28;20053;-45
2021/07/17 02:01:17;;;;;;;2.38;1.77;;;22.10;73.50;;;;;;5053469;28;20041;-46
2021/07/17 02:03:47;;;;;;;2.70;1.95;;;22.10;73.50;;;;;;5054802;28;20051;-45
2021/07/17 02:06:21;;;;;;;3.35;2.13;;;22.10;73.50;;;;;;5054158;28;20107;-51
2021/07/17 02:08:47;;;;;;;2.90;1.90;;;22.10;73.60;;;;;;5054523;28;20052;-46
2021/07/17 02:11:13;;;;;;;2.50;1.80;;;22.10;73.60;;;;;;5054065;28;20473;-51
2021/07/17 02:13:38;;;;;;;2.15;1.95;;;22.10;73.60;;;;;;5054312;28;20045;-46
2021/07/17 02:16:04;;;;;;;4.18;1.95;;;22.10;73.60;;;;;;5053521;28;20068;-44
2021/07/17 02:18:34;;;;;;;2.20;1.77;;;22.10;73.60;;;;;;5053771;28;20053;-43
2021/07/17 02:21:02;;;;;;;2.20;1.63;;;22.10;73.60;;;;;;5053764;28;20057;-48
2021/07/17 02:23:28;;;;;;;1.80;1.55;;;22.10;73.60;;;;;;5052797;28;20053;-48
2021/07/17 02:25:54;;;;;;;1.80;1.50;;;22.10;73.60;;;;;;5050138;28;20117;-50
2021/07/17 02:28:20;;;;;;;3.15;1.70;;;22.10;73.60;;;;;;5053897;28;20126;-51
2021/07/17 02:30:47;;;;;;;3.42;1.65;;;22.10;73.60;;;;;;5052787;28;20450;-50
2021/07/17 02:33:13;;;;;;;2.28;1.60;;;22.10;73.60;;;;;;5053328;28;20116;-52
2021/07/17 02:35:39;;;;;;;2.00;1.70;;;22.10;73.60;;;;;;5053273;28;20052;-50
2021/07/17 02:38:05;;;;;;;2.15;1.95;;;22.10;73.70;;;;;;5053643;28;20045;-50
2021/07/17 02:40:31;;;;;;;1.85;1.60;;;22.10;73.60;;;;;;5053313;28;20386;-48
2021/07/17 02:42:57;;;;;;;2.35;1.80;;;22.10;73.70;;;;;;5053999;28;20056;-50
2021/07/17 02:45:23;;;;;;;2.30;1.77;;;22.10;73.70;;;;;;5053308;28;20123;-49
2021/07/17 02:47:48;;;;;;;2.50;1.80;;;22.10;73.70;;;;;;5052669;28;20048;-51
2021/07/17 02:50:15;;;;;;;1.60;1.45;;;22.10;73.70;;;;;;5049961;28;20508;-50
2021/07/17 02:52:41;;;;;;;1.65;1.55;;;22.10;74.10;;;;;;5051474;28;20520;-47
2021/07/17 02:55:08;;;;;;;2.72;1.73;;;22.10;73.70;;;;;;5052200;28;20040;-48
2021/07/17 02:57:33;;;;;;;1.70;1.60;;;22.10;73.70;;;;;;5052248;28;20049;-50
2021/07/17 02:59:59;;;;;;;1.75;1.50;;;22.10;73.70;;;;;;5053417;28;20060;-49
2021/07/17 03:02:26;;;;;;;1.85;1.65;;;22.10;73.70;;;;;;5053415;28;20053;-49
2021/07/17 03:04:51;;;;;;;2.28;1.50;;;22.10;73.70;;;;;;5052518;28;20137;-50
2021/07/17 03:07:17;;;;;;;2.15;1.70;;;22.10;73.70;;;;;;5052993;28;20116;-50
2021/07/17 03:09:43;;;;;;;2.22;1.52;;;22.10;73.70;;;;;;5053168;28;20076;-52
2021/07/17 03:12:09;;;;;;;2.00;1.40;;;22.10;73.70;;;;;;5053022;28;20076;-49
2021/07/17 03:14:35;;;;;;;1.70;1.60;;;22.10;73.70;;;;;;5053087;28;20049;-52
2021/07/17 03:17:01;;;;;;;2.40;1.50;;;22.10;73.70;;;;;;5047741;28;20048;-49
2021/07/17 03:19:27;;;;;;;1.63;1.52;;;22.10;73.70;;;;;;5051833;28;20075;-53
2021/07/17 03:21:52;;;;;;;1.90;1.70;;;22.10;73.70;;;;;;5051335;28;20539;-52
2021/07/17 03:24:18;;;;;;;2.10;1.80;;;22.10;73.70;;;;;;5051114;28;20049;-48
2021/07/17 03:26:44;;;;;;;2.45;1.58;;;22.00;73.70;;;;;;5051019;28;20053;-51
2021/07/17 03:29:10;;;;;;;2.95;1.77;;;22.10;73.80;;;;;;5053102;28;20049;-48
2021/07/17 03:31:36;;;;;;;1.95;1.75;;;22.00;73.70;;;;;;5052543;28;20041;-49
2021/07/17 03:34:02;;;;;;;2.60;1.45;;;22.00;73.70;;;;;;5052789;28;20040;-52
2021/07/17 03:36:29;;;;;;;1.40;1.30;;;22.00;73.70;;;;;;5051542;28;20045;-49
2021/07/17 03:38:59;;;;;;;2.90;1.60;;;22.10;73.80;;;;;;5052180;28;20497;-48
2021/07/17 03:41:31;;;;;;;2.47;1.63;;;22.00;73.70;;;;;;5052138;28;20474;-42
2021/07/17 03:44:06;;;;;;;1.58;1.48;;;22.00;73.70;;;;;;5047545;28;20045;-47
2021/07/17 03:46:33;;;;;;;6.53;2.00;;;22.10;73.80;;;;;;5052535;28;21564;-48
2021/07/17 03:48:59;;;;;;;1.33;1.15;;;22.00;73.80;;;;;;5052700;28;20044;-47
2021/07/17 03:51:25;;;;;;;1.70;1.50;;;22.00;73.70;;;;;;5051931;28;20037;-47
2021/07/17 03:53:51;;;;;;;2.05;1.63;;;22.00;73.70;;;;;;5051692;28;20041;-50
2021/07/17 03:56:17;;;;;;;1.92;1.60;;;22.00;73.70;;;;;;5052434;28;20049;-47
2021/07/17 03:58:43;;;;;;;1.70;1.60;;;22.00;73.70;;;;;;5051755;28;20059;-52
2021/07/17 04:01:09;;;;;;;2.20;1.52;;;22.00;73.70;;;;;;5052503;28;20056;-49
2021/07/17 04:03:36;;;;;;;1.58;1.48;;;22.00;73.80;;;;;;5052113;28;20403;-47
2021/07/17 04:06:01;;;;;;;1.95;1.50;;;22.00;73.80;;;;;;5051907;28;20045;-49
2021/07/17 04:08:27;;;;;;;1.60;1.50;;;22.00;73.80;;;;;;5051587;28;20482;-48
2021/07/17 04:10:55;;;;;;;1.50;1.40;;;22.00;73.80;;;;;;5051880;28;20045;-48
2021/07/17 04:13:21;;;;;;;1.98;1.70;;;21.90;73.70;;;;;;5052174;28;20459;-48
2021/07/17 04:15:47;;;;;;;1.80;1.70;;;22.00;73.80;;;;;;5052191;28;20052;-48
2021/07/17 04:18:12;;;;;;;2.20;1.67;;;22.00;73.80;;;;;;5051379;28;20053;-52
2021/07/17 04:20:38;;;;;;;1.67;1.58;;;22.00;73.80;;;;;;5052179;28;20069;-46
2021/07/17 04:23:04;;;;;;;1.95;1.58;;;22.00;73.80;;;;;;5051290;28;20049;-52
2021/07/17 04:25:30;;;;;;;1.95;1.75;;;22.00;73.80;;;;;;5050467;28;20405;-47
2021/07/17 04:27:56;;;;;;;1.88;1.55;;;22.00;73.80;;;;;;5051437;28;20041;-48
2021/07/17 04:30:21;;;;;;;2.13;1.52;;;22.00;73.80;;;;;;5051922;28;20049;-50
2021/07/17 04:32:47;;;;;;;1.95;1.55;;;22.00;73.80;;;;;;5052040;28;20478;-49
2021/07/17 04:35:13;;;;;;;2.05;1.40;;;22.00;73.80;;;;;;5051975;28;20528;-48
2021/07/17 04:37:39;;;;;;;1.55;1.45;;;22.00;73.80;;;;;;5050832;28;20470;-47
2021/07/17 04:40:05;;;;;;;2.00;1.58;;;22.00;73.80;;;;;;5051746;28;20461;-48
2021/07/17 04:42:31;;;;;;;2.30;1.38;;;22.00;73.80;;;;;;5047845;28;20045;-46
2021/07/17 04:44:57;;;;;;;1.48;1.38;;;22.00;73.80;;;;;;5049664;28;20053;-48
2021/07/17 04:47:22;;;;;;;2.38;1.40;;;22.00;73.80;;;;;;5051670;28;20056;-45
2021/07/17 04:49:48;;;;;;;1.63;1.50;;;22.00;73.80;;;;;;5051684;28;20491;-44
2021/07/17 04:52:14;;;;;;;2.08;1.63;;;22.00;73.80;;;;;;5052225;28;20511;-48
2021/07/17 04:54:40;;;;;;;1.63;1.52;;;22.00;73.80;;;;;;5053874;28;20068;-48
2021/07/17 04:57:05;;;;;;;1.60;1.40;;;22.00;73.80;;;;;;5055657;28;20480;-48
2021/07/17 04:59:31;;;;;;;1.45;1.25;;;22.00;73.80;;;;;;5055157;28;20053;-47
2021/07/17 05:01:57;;;;;;;2.60;1.77;;;22.00;73.80;;;;;;5055566;28;20055;-46
2021/07/17 05:04:22;;;;;;;1.65;1.50;;;22.00;73.90;;;;;;5055087;28;20052;-47
2021/07/17 05:06:48;;;;;;;1.60;1.30;;;22.00;73.80;;;;;;5055939;28;20057;-50
2021/07/17 05:09:14;;;;;;;1.92;1.40;;;22.00;73.80;;;;;;5054116;28;20071;-49
2021/07/17 05:11:39;;;;;;;2.38;1.60;;;22.00;73.80;;;;;;5055247;28;20047;-52
2021/07/17 05:14:05;;;;;;;1.65;1.55;;;22.00;73.80;;;;;;5055140;28;20556;-53
2021/07/17 05:16:31;;;;;;;1.80;1.70;;;21.90;74.40;;;;;;5055147;28;20413;-52
2021/07/17 05:18:57;;;;;;;1.92;1.70;;;22.00;73.80;;;;;;5055214;28;20160;-53
2021/07/17 05:21:23;;;;;;;2.20;1.67;;;21.90;73.80;;;;;;5054461;28;20124;-46
2021/07/17 05:23:48;;;;;;;2.28;1.40;;;21.90;73.80;;;;;;5055067;28;20136;-51
2021/07/17 05:26:14;;;;;;;1.90;1.45;;;22.00;73.80;;;;;;5054184;28;20086;-48
2021/07/17 05:28:40;;;;;;;1.83;1.52;;;22.00;73.80;;;;;;5054089;28;20094;-53
2021/07/17 05:31:06;;;;;;;1.75;1.40;;;22.00;73.80;;;;;;5054944;28;20064;-48
2021/07/17 05:33:31;;;;;;;1.90;1.50;;;21.90;73.80;;;;;;5055210;28;20076;-50
2021/07/17 05:35:57;;;;;;;1.80;1.67;;;22.00;73.80;;;;;;5054977;28;20041;-52
2021/07/17 05:38:23;;;;;;;1.60;1.30;;;22.00;73.80;;;;;;5054441;28;20040;-49
2021/07/17 05:40:49;;;;;;;2.35;1.90;;;21.90;73.80;;;;;;5036763;28;20058;-46
2021/07/17 05:43:14;;;;;;;2.05;1.55;;;21.90;73.80;;;;;;5054343;28;20493;-52
2021/07/17 05:45:40;;;;;;;1.55;1.27;;;22.00;73.80;;;;;;5055002;28;20496;-53
2021/07/17 05:48:06;;;;;;;2.53;1.35;;;22.00;73.90;;;;;;5054817;28;20531;-52
2021/07/17 05:50:32;;;;;;;2.20;1.55;;;22.00;73.80;;;;;;5054594;28;20056;-52
2021/07/17 05:52:58;;;;;;;1.90;1.40;;;21.90;73.80;;;;;;5054682;28;20048;-49
2021/07/17 05:55:24;;;;;;;2.08;1.35;;;22.00;73.90;;;;;;5054677;28;20049;-50
2021/07/17 05:57:50;;;;;;;1.67;1.48;;;21.90;73.80;;;;;;5053798;28;20474;-49
2021/07/17 06:00:19;;;;;;;1.60;1.38;;;22.00;73.90;;;;;;5053732;28;20120;-49
2021/07/17 06:02:48;;;;;;;2.58;1.27;;;21.90;73.80;;;;;;5054225;28;20091;-52
2021/07/17 06:05:14;;;;;;;2.30;1.50;;;22.00;73.90;;;;;;5054222;28;20119;-50
2021/07/17 06:07:39;;;;;;;1.40;1.30;;;22.00;73.90;;;;;;5054516;28;20132;-52
2021/07/17 06:10:05;;;;;;;1.65;1.35;;;21.90;73.80;;;;;;5053727;28;20045;-53
2021/07/17 06:12:32;;;;;;;2.33;1.25;;;21.90;73.80;;;;;;5053005;28;20053;-48
2021/07/17 06:14:58;;;;;;;1.85;1.27;;;21.90;73.80;;;;;;5054046;28;20049;-51
2021/07/17 06:17:23;;;;;;;1.73;1.17;;;22.00;73.80;;;;;;5054085;28;20504;-47
2021/07/17 06:19:49;;;;;;;1.33;1.20;;;22.00;73.80;;;;;;5053778;28;20114;-48
2021/07/17 06:22:15;;;;;;;1.83;1.40;;;21.90;73.80;;;;;;5053402;28;20107;-52
2021/07/17 06:24:41;;;;;;;1.83;1.35;;;22.00;73.80;;;;;;5053654;28;20049;-51
2021/07/17 06:27:07;;;;;;;2.15;1.40;;;21.90;73.70;;;;;;5053768;28;20040;-49
2021/07/17 06:29:36;;;;;;;1.55;1.30;;;22.00;73.80;;;;;;5053081;28;20378;-44
2021/07/17 06:32:06;;;;;;;3.17;1.23;;;22.00;73.80;;;;;;5054029;28;20045;-43
2021/07/17 06:34:32;;;;;;;1.27;1.17;;;22.00;73.90;;;;;;5053576;28;20047;-51
2021/07/17 06:36:58;;;;;;;1.20;1.10;;;21.90;73.80;;;;;;5054097;28;20064;-52
2021/07/17 06:39:24;;;;;;;1.60;1.50;;;22.00;73.80;;;;;;5053316;28;20458;-48
2021/07/17 06:41:50;;;;;;;1.20;1.10;;;22.00;73.80;;;;;;5054026;28;20139;-44
2021/07/17 06:44:16;;;;;;;1.40;1.30;;;22.00;73.80;;;;;;5053254;28;20083;-51
2021/07/17 06:46:41;;;;;;;1.45;1.30;;;22.00;73.80;;;;;;5053806;28;20041;-48
2021/07/17 06:49:07;;;;;;;2.30;1.35;;;22.00;73.80;;;;;;5053705;28;20045;-52
2021/07/17 06:51:33;;;;;;;1.65;1.55;;;22.00;73.80;;;;;;5053310;28;20041;-49
2021/07/17 06:53:59;;;;;;;2.95;1.70;;;22.00;73.80;;;;;;5053597;28;20501;-47
2021/07/17 06:56:26;;;;;;;1.58;1.02;;;22.00;73.80;;;;;;5053462;28;20040;-47
2021/07/17 06:58:51;;;;;;;1.10;1.00;;;22.00;73.80;;;;;;5053051;28;20052;-48
2021/07/17 07:01:18;;;;;;;2.00;1.42;;;22.00;73.80;;;;;;5053251;28;20063;-49
2021/07/17 07:03:44;;;;;;;1.85;1.48;;;22.00;73.80;;;;;;5053384;28;20378;-47
2021/07/17 07:06:10;;;;;;;1.40;1.30;;;22.00;73.80;;;;;;5053432;28;20045;-51
2021/07/17 07:08:36;;;;;;;1.80;1.60;;;22.00;73.80;;;;;;5053416;28;20049;-46
2021/07/17 07:11:02;;;;;;;1.90;1.48;;;22.00;73.70;;;;;;5053288;28;20409;-46
2021/07/17 07:13:28;;;;;;;1.40;1.30;;;22.00;73.70;;;;;;5053189;28;20076;-47
2021/07/17 07:15:54;;;;;;;2.20;1.40;;;22.00;73.80;;;;;;5052285;28;20503;-49
2021/07/17 07:18:19;;;;;;;1.70;1.60;;;22.00;73.70;;;;;;5052985;28;20397;-52
2021/07/17 07:20:45;;;;;;;1.30;1.20;;;22.00;73.70;;;;;;5052787;28;20045;-47
2021/07/17 07:23:11;;;;;;;1.85;1.60;;;22.00;73.70;;;;;;5052975;28;20569;-49
2021/07/17 07:25:37;;;;;;;1.30;1.20;;;22.00;73.70;;;;;;5053084;28;20098;-51
2021/07/17 07:28:03;;;;;;;1.83;1.10;;;22.00;73.70;;;;;;5052974;28;20041;-49
2021/07/17 07:30:29;;;;;;;1.58;1.27;;;22.10;73.80;;;;;;5052287;28;20140;-49
2021/07/17 07:32:55;;;;;;;1.23;1.10;;;22.10;73.80;;;;;;5052986;28;20128;-44
2021/07/17 07:35:22;;;;;;;1.70;1.55;;;22.10;73.80;;;;;;5051232;28;20453;-51
2021/07/17 07:37:50;;;;;;;2.70;1.70;;;22.10;73.80;;;;;;5049562;28;20158;-49
2021/07/17 07:40:16;;;;;;;1.75;1.55;;;22.10;73.80;;;;;;5050635;28;20049;-48
2021/07/17 07:42:42;;;;;;;2.28;1.40;;;22.10;73.80;;;;;;5051778;28;20045;-51
2021/07/17 07:45:08;;;;;;;3.67;1.52;;;22.10;73.80;;;;;;5052432;28;20121;-50
2021/07/17 07:47:34;;;;;;;3.35;1.50;;;22.10;73.80;;;;;;5052100;28;20136;-53
2021/07/17 07:50:00;;;;;;;5.30;1.70;;;22.10;73.80;;;;;;5052552;28;20124;-50
2021/07/17 07:52:26;;;;;;;2.45;1.52;;;22.10;73.70;;;;;;5052129;28;20497;-48
2021/07/17 07:54:52;;;;;;;2.10;1.42;;;22.10;73.70;;;;;;5052486;28;20387;-48
2021/07/17 07:57:19;;;;;;;1.85;1.40;;;22.10;73.70;;;;;;5052855;28;20071;-53
2021/07/17 07:59:45;;;;;;;1.60;1.45;;;22.20;73.70;;;;;;5052239;28;20044;-48
2021/07/17 08:02:10;;;;;;;1.23;1.13;;;22.10;73.70;;;;;;5051603;28;20055;-52
2021/07/17 08:04:36;;;;;;;1.65;1.00;;;22.10;73.70;;;;;;5052480;28;20076;-48
2021/07/17 08:07:03;;;;;;;2.30;1.52;;;22.10;73.70;;;;;;5052373;28;20128;-51
2021/07/17 08:09:28;;;;;;;1.30;1.20;;;22.20;73.80;;;;;;5052236;28;20045;-48
2021/07/17 08:11:54;;;;;;;1.42;1.20;;;22.10;73.70;;;;;;5051905;28;20047;-48
2021/07/17 08:14:21;;;;;;;1.48;1.25;;;22.10;73.70;;;;;;5052489;28;20052;-46
2021/07/17 08:16:47;;;;;;;1.20;1.10;;;22.20;73.70;;;;;;5052010;28;20123;-52
2021/07/17 08:19:13;;;;;;;1.30;1.20;;;22.30;73.80;;;;;;5067571;28;20052;-49
2021/07/17 08:21:39;;;;;;;1.35;1.10;;;22.30;73.80;;;;;;5051918;28;20099;-49
2021/07/17 08:24:06;;;;;;;1.45;1.27;;;22.20;73.70;;;;;;5052494;28;20444;-49
2021/07/17 08:26:32;;;;;;;1.63;1.20;;;22.30;73.70;;;;;;5052370;28;20045;-53
2021/07/17 08:28:58;;;;;;;2.33;1.38;;;22.30;73.70;;;;;;5054032;28;20489;-49
2021/07/17 08:31:24;;;;;;;1.77;1.27;;;22.30;73.70;;;;;;5055804;28;20175;-46
2021/07/17 08:33:50;;;;;;;1.23;1.13;;;22.30;73.70;;;;;;5055940;28;20053;-45
2021/07/17 08:36:17;;;;;;;1.10;1.00;;;22.30;73.70;;;;;;5055949;28;20064;-47
2021/07/17 08:38:44;;;;;;;1.30;0.95;;;22.30;73.70;;;;;;5055901;28;20067;-52
2021/07/17 08:41:10;;;;;;;1.95;1.30;;;22.30;73.70;;;;;;5056054;28;20501;-46
2021/07/17 08:43:37;;;;;;;1.40;1.23;;;22.40;73.80;;;;;;5055576;28;20079;-47
2021/07/17 08:46:03;;;;;;;1.70;1.20;;;22.40;73.70;;;;;;5055751;28;20049;-47
2021/07/17 08:48:30;;;;;;;0.90;0.90;;;22.40;73.70;;;;;;5055815;28;20045;-52
2021/07/17 08:50:58;;;;;;;1.10;1.00;;;22.40;73.70;;;;;;5056138;28;20053;-49
2021/07/17 08:53:25;;;;;;;1.27;0.90;;;22.40;73.60;;;;;;5055805;28;20049;-47
2021/07/17 08:55:51;;;;;;;1.35;1.00;;;22.40;73.60;;;;;;5055219;28;20059;-48
2021/07/17 08:58:17;;;;;;;1.35;0.73;;;22.40;73.60;;;;;;5055808;28;20049;-51
2021/07/17 09:00:44;;;;;;;1.35;1.08;;;22.40;73.60;;;;;;5054194;28;20064;-51
2021/07/17 09:03:13;;;;;;;1.17;1.00;;;22.50;73.60;;;;;;5051730;28;20764;-46
2021/07/17 09:05:44;;;;;;;1.20;1.10;;;22.50;73.60;;;;;;5051377;28;20051;-46
2021/07/17 09:08:12;;;;;;;1.05;1.00;;;22.50;73.50;;;;;;5052006;28;20044;-51
2021/07/17 09:10:39;;;;;;;1.20;1.10;;;22.50;73.50;;;;;;5052094;28;20048;-51
2021/07/17 09:13:14;;;;;;;0.85;0.80;;;22.50;73.50;;;;;;5051721;28;20041;-51
2021/07/17 09:15:58;;;;;;;0.98;0.90;;;22.50;73.40;;;;;;5031852;28;20118;-46
2021/07/17 09:18:33;;;;;;;1.42;1.02;;;22.60;73.50;;;;;;5034672;28;20056;-46
2021/07/17 09:21:06;;;;;;;1.23;1.08;;;22.60;73.50;;;;;;5034902;28;20053;-46
2021/07/17 09:23:43;;;;;;;0.80;0.80;;;22.60;73.50;;;;;;5048932;28;20579;-51
2021/07/17 09:26:17;;;;;;;0.80;0.80;;;22.60;73.40;;;;;;5055119;28;20048;-45
2021/07/17 09:28:58;;;;;;;1.30;0.93;;;22.60;73.40;;;;;;5055464;28;20048;-47
2021/07/17 09:31:26;;;;;;;1.00;0.98;;;22.60;73.30;;;;;;5055118;28;20485;-48
2021/07/17 09:34:00;;;;;;;1.23;1.02;;;22.60;73.30;;;;;;5054728;28;20052;-47
2021/07/17 09:36:26;;;;;;;1.13;1.00;;;22.70;73.30;;;;;;5054798;28;20136;-46
2021/07/17 09:38:51;;;;;;;1.00;0.90;;;22.70;73.30;;;;;;5054688;28;20476;-47
2021/07/17 09:41:19;;;;;;;1.42;0.90;;;22.70;73.20;;;;;;5054631;28;20049;-53
2021/07/17 09:43:45;;;;;;;0.82;0.70;;;22.70;73.20;;;;;;5054424;28;20174;-49
2021/07/17 09:46:25;;;;;;;0.82;0.70;;;22.70;73.10;;;;;;5055000;28;20120;-46
2021/07/17 09:48:53;;;;;;;0.98;0.90;;;22.80;73.10;;;;;;5055257;28;20049;-58
2021/07/17 09:51:29;;;;;;;1.60;0.90;;;22.80;73.10;;;;;;5054041;28;20052;-61
2021/07/17 09:53:56;;;;;;;1.73;0.95;;;23.10;72.90;;;;;;5054246;28;20049;-60
2021/07/17 09:56:24;;;;;;;1.25;1.10;;;23.10;72.40;;;;;;5054609;28;20045;-61
2021/07/17 09:58:53;;;;;;;2.42;1.15;;;23.20;72.10;;;;;;5054560;28;20049;-60
2021/07/17 10:01:19;;;;;;;1.63;1.10;;;23.20;72.00;;;;;;5054617;28;20072;-60
2021/07/17 10:03:46;;;;;;;1.02;0.90;;;23.20;72.00;;;;;;5053827;28;20072;-62
2021/07/17 10:06:30;;;;;;;1.85;1.05;;;23.20;71.90;;;;;;5054807;28;20044;-60
2021/07/17 10:08:56;;;;;;;2.13;1.20;;;23.20;71.80;;;;;;5053744;28;20497;-61
2021/07/17 10:11:27;;;;;;;1.58;1.00;;;23.20;71.90;;;;;;5054529;28;20056;-60
2021/07/17 10:13:53;;;;;;;2.08;1.33;;;23.20;71.90;;;;;;5053613;28;20072;-61
2021/07/17 10:16:25;;;;;;;1.80;1.10;;;23.10;71.80;;;;;;5054488;28;20076;-62
2021/07/17 10:18:53;;;;;;;1.83;1.00;;;23.10;71.80;;;;;;5054300;28;20378;-61
2021/07/17 10:21:19;;;;;;;2.20;1.20;;;23.10;71.80;;;;;;5054369;28;20511;-61
2021/07/17 10:23:45;;;;;;;2.03;1.23;;;23.10;71.80;;;;;;5052933;28;20036;-61
2021/07/17 10:26:11;;;;;;;2.58;1.00;;;23.10;71.90;;;;;;5054307;28;20049;-61
2021/07/17 10:28:37;;;;;;;2.70;1.30;;;23.10;71.80;;;;;;5054124;28;20041;-62
2021/07/17 10:31:05;;;;;;;2.90;1.00;;;23.20;71.90;;;;;;5054043;28;20040;-62
2021/07/17 10:33:31;;;;;;;2.33;0.80;;;23.20;71.80;;;;;;5053398;28;20071;-62
2021/07/17 10:36:02;;;;;;;1.20;1.10;;;23.10;71.80;;;;;;5053649;28;20045;-62
2021/07/17 10:38:29;;;;;;;1.00;0.90;;;23.20;71.90;;;;;;5053515;28;20071;-62
2021/07/17 10:40:57;;;;;;;0.85;0.80;;;23.20;71.80;;;;;;5053867;28;20538;-61
2021/07/17 10:43:23;;;;;;;1.45;1.10;;;23.20;71.80;;;;;;5053555;28;20048;-61
2021/07/17 10:45:50;;;;;;;1.10;0.77;;;23.20;71.80;;;;;;5053742;28;20052;-62
2021/07/17 10:48:23;;;;;;;1.13;1.00;;;23.20;71.80;;;;;;5053923;28;20178;-61
2021/07/17 10:50:49;;;;;;;2.25;1.10;;;23.20;71.80;;;;;;5053400;28;20389;-60
2021/07/17 10:53:44;;;;;;;4.22;1.10;;;23.20;71.70;;;;;;5053281;28;20049;-56
2021/07/17 10:56:28;;;;;;;3.22;1.20;;;23.30;71.60;;;;;;5048575;28;20041;-56
2021/07/17 10:59:07;;;;;;;2.47;1.02;;;23.30;71.50;;;;;;5053713;28;20041;-58
2021/07/17 11:01:55;;;;;;;2.53;1.10;;;23.40;71.50;;;;;;5053362;28;20044;-55
2021/07/17 11:04:36;;;;;;;3.13;1.38;;;23.40;71.40;;;;;;5053256;28;20057;-53
2021/07/17 11:07:17;;;;;;;2.42;1.17;;;23.50;71.30;;;;;;5052657;28;20091;-57
2021/07/17 11:09:54;;;;;;;1.90;1.05;;;23.50;71.30;;;;;;5051691;28;20097;-60
2021/07/17 11:12:26;;;;;;;1.73;1.08;;;23.50;71.10;;;;;;5053201;28;20049;-56
2021/07/17 11:14:53;;;;;;;1.42;0.98;;;23.60;71.10;;;;;;5051225;28;20045;-58
2021/07/17 11:17:48;;;;;;;0.90;0.90;;;23.60;71.10;;;;;;5051070;28;20070;-56
2021/07/17 11:20:18;;;;;;;1.33;0.88;;;23.70;71.10;;;;;;5048270;28;20049;-57
2021/07/17 11:22:44;;;;;;;1.52;1.00;;;23.60;71.00;;;;;;5053326;28;20063;-56
2021/07/17 11:25:14;;;;;;;1.13;1.00;;;23.70;71.00;;;;;;5052454;28;20041;-58
2021/07/17 11:27:40;;;;;;;1.15;0.70;;;23.70;71.00;;;;;;5053014;28;20072;-55
2021/07/17 11:30:18;;;;;;;2.05;0.93;;;23.70;71.00;;;;;;5053020;28;20095;-57
2021/07/17 11:33:02;;;;;;;1.35;0.93;;;23.70;70.90;;;;;;5052981;28;20091;-57
2021/07/17 11:35:29;;;;;;;1.40;1.00;;;23.70;70.90;;;;;;5052572;28;20051;-56
2021/07/17 11:37:55;;;;;;;1.95;0.93;;;23.80;71.00;;;;;;5052274;28;20041;-57
2021/07/17 11:40:22;;;;;;;1.20;0.80;;;23.80;70.90;;;;;;5049241;28;20477;-55
2021/07/17 11:42:49;;;;;;;1.27;0.73;;;23.80;70.90;;;;;;5051959;28;20527;-59
2021/07/17 11:45:14;;;;;;;1.80;1.05;;;23.80;70.80;;;;;;5052302;28;20040;-52
2021/07/17 11:47:41;;;;;;;1.67;0.95;;;23.80;70.80;;;;;;5051784;28;20045;-56
2021/07/17 11:50:07;;;;;;;1.95;1.00;;;23.80;70.80;;;;;;5052870;28;20051;-59
2021/07/17 11:52:36;;;;;;;1.10;0.88;;;23.90;70.80;;;;;;5052815;28;20103;-56
2021/07/17 11:55:12;;;;;;;1.83;0.70;;;23.90;70.70;;;;;;5051337;28;20055;-58
2021/07/17 11:57:42;;;;;;;1.90;0.90;;;23.90;70.70;;;;;;5052007;28;20490;-57
2021/07/17 12:00:17;;;;;;;1.80;0.63;;;23.90;70.70;;;;;;5052568;28;20490;-59
2021/07/17 12:02:45;;;;;;;1.38;0.95;;;23.90;70.70;;;;;;5051805;28;20128;-57
2021/07/17 12:05:15;;;;;;;1.73;0.93;;;23.90;71.30;;;;;;5051778;28;20493;-56
2021/07/17 12:07:43;;;;;;;0.88;0.70;;;23.90;70.60;;;;;;5051985;28;20075;-56
2021/07/17 12:10:15;;;;;;;1.58;0.90;;;23.90;70.60;;;;;;5052406;28;20125;-57
2021/07/17 12:12:42;;;;;;;1.70;0.70;;;23.90;70.50;;;;;;5051615;28;20126;-57
2021/07/17 12:15:14;;;;;;;1.13;0.98;;;23.90;70.50;;;;;;5048615;28;20053;-59
2021/07/17 12:17:48;;;;;;;1.50;0.80;;;23.90;70.50;;;;;;5052305;28;20044;-57
2021/07/17 12:20:28;;;;;;;1.13;0.85;;;23.90;70.40;;;;;;5052092;28;20048;-57
2021/07/17 12:23:03;;;;;;;0.80;0.70;;;23.90;70.40;;;;;;5051443;28;20405;-56
2021/07/17 12:25:37;;;;;;;1.63;0.77;;;24.00;70.40;;;;;;5051172;28;20124;-57
2021/07/17 12:28:07;;;;;;;1.00;0.77;;;24.00;70.40;;;;;;5051898;28;20041;-57
2021/07/17 12:30:47;;;;;;;0.82;0.60;;;24.00;70.40;;;;;;5050542;28;20098;-64
2021/07/17 12:33:21;;;;;;;1.20;0.70;;;24.00;70.40;;;;;;5032368;28;20758;-57
2021/07/17 12:35:49;;;;;;;1.08;0.80;;;24.00;70.40;;;;;;5037583;28;20128;-57
2021/07/17 12:38:16;;;;;;;1.25;0.70;;;24.00;70.30;;;;;;5051391;28;20045;-57
2021/07/17 12:40:53;;;;;;;0.57;0.57;;;24.00;70.30;;;;;;5034919;28;20073;-60
2021/07/17 12:43:44;;;;;;;1.48;0.68;;;24.00;70.30;;;;;;5042938;28;20193;-59
2021/07/17 12:46:15;;;;;;;1.58;0.60;;;24.10;70.30;;;;;;5049832;28;20112;-55
2021/07/17 12:48:51;;;;;;;1.10;0.80;;;24.00;70.30;;;;;;5032764;28;20546;-57
2021/07/17 12:51:19;;;;;;;0.70;0.60;;;24.00;70.30;;;;;;5031052;28;20045;-55